createdAt,value
2017-11-05T00:00:31.328Z,97367.75
2017-11-05T00:02:59.597Z,97368.02
2017-11-05T00:05:27.863Z,97371.53
2017-11-05T00:07:56.152Z,97370.45
2017-11-05T00:10:25.115Z,97367.66
2017-11-05T00:12:53.796Z,97371.76
2017-11-05T00:15:22.075Z,97365.73
2017-11-05T00:17:50.331Z,97354.16
2017-11-05T00:20:18.626Z,97355.38
2017-11-05T00:22:47.343Z,97354.78
2017-11-05T00:25:15.597Z,97349.48
2017-11-05T00:27:43.867Z,97343.31
2017-11-05T00:30:12.165Z,97346.05
2017-11-05T00:32:40.416Z,97340.52
2017-11-05T00:35:08.663Z,97335.52
2017-11-05T00:37:37.010Z,97334.31
2017-11-05T00:40:05.674Z,97331.38
2017-11-05T00:42:33.932Z,97331.69
2017-11-05T00:45:02.209Z,97332.28
2017-11-05T00:47:31.224Z,97335.30
2017-11-05T00:49:59.491Z,97333.19
2017-11-05T00:52:28.213Z,97326.56
2017-11-05T00:54:56.868Z,97332.78
2017-11-05T00:57:25.590Z,97332.59
2017-11-05T00:59:53.881Z,97323.95
2017-11-05T01:02:22.143Z,97324.17
2017-11-05T01:04:50.473Z,97326.29
2017-11-05T01:07:19.809Z,97324.27
2017-11-05T01:09:48.063Z,97321.84
2017-11-05T01:12:16.334Z,97322.16
2017-11-05T01:14:45.388Z,97323.47
2017-11-05T01:17:13.648Z,97324.05
2017-11-05T01:19:41.903Z,97321.56
2017-11-05T01:22:10.606Z,97313.11
2017-11-05T01:24:38.876Z,97314.23
2017-11-05T01:27:07.140Z,97308.91
2017-11-05T01:29:35.428Z,97319.36
2017-11-05T01:32:03.696Z,97317.24
2017-11-05T01:34:31.972Z,97318.23
2017-11-05T01:37:00.681Z,97315.34
2017-11-05T01:39:28.969Z,97312.92
2017-11-05T01:41:57.245Z,97308.81
2017-11-05T01:44:25.537Z,97304.77
2017-11-05T01:46:53.800Z,97308.69
2017-11-05T01:49:22.460Z,97307.29
2017-11-05T01:51:50.745Z,97304.68
2017-11-05T01:54:19.021Z,97308.00
2017-11-05T01:56:47.296Z,97301.38
2017-11-05T01:59:16.047Z,97303.09
2017-11-05T02:01:44.303Z,97301.88
2017-11-05T02:04:12.570Z,97299.67
2017-11-05T02:06:40.849Z,97296.66
2017-11-05T02:09:09.148Z,97296.34
2017-11-05T02:11:37.414Z,97298.77
2017-11-05T02:14:06.057Z,97294.45
2017-11-05T02:16:34.332Z,97291.44
2017-11-05T02:19:02.603Z,97289.63
2017-11-05T02:21:30.896Z,97284.89
2017-11-05T02:23:59.158Z,97278.88
2017-11-05T02:26:27.855Z,97279.90
2017-11-05T02:28:56.948Z,97274.34
2017-11-05T02:31:25.212Z,97272.32
2017-11-05T02:33:53.477Z,97265.52
2017-11-05T02:36:23.022Z,97270.73
2017-11-05T02:38:51.293Z,97264.81
2017-11-05T02:41:19.556Z,97263.59
2017-11-05T02:43:47.855Z,97260.08
2017-11-05T02:46:16.111Z,97255.07
2017-11-05T02:48:44.400Z,97245.52
2017-11-05T02:51:12.667Z,97243.80
2017-11-05T02:53:40.966Z,97244.48
2017-11-05T02:56:09.245Z,97242.47
2017-11-05T02:58:37.530Z,97238.23
2017-11-05T03:01:07.721Z,97234.63
2017-11-05T03:03:36.949Z,97230.30
2017-11-05T03:06:05.259Z,97226.97
2017-11-05T03:08:33.517Z,97236.61
2017-11-05T03:11:01.826Z,97232.31
2017-11-05T03:13:30.092Z,97229.89
2017-11-05T03:15:59.909Z,97236.00
2017-11-05T03:18:28.181Z,97239.92
2017-11-05T03:20:56.456Z,97237.02
2017-11-05T03:23:24.742Z,97240.56
2017-11-05T03:25:53.020Z,97238.33
2017-11-05T03:28:21.694Z,97240.73
2017-11-05T03:30:49.963Z,97234.59
2017-11-05T03:33:18.232Z,97239.02
2017-11-05T03:35:46.503Z,97237.61
2017-11-05T03:38:15.552Z,97240.02
2017-11-05T03:40:44.609Z,97238.20
2017-11-05T03:43:12.961Z,97236.50
2017-11-05T03:45:41.251Z,97239.61
2017-11-05T03:48:09.512Z,97235.09
2017-11-05T03:50:37.792Z,97225.94
2017-11-05T03:53:07.030Z,97227.94
2017-11-05T03:55:35.677Z,97225.91
2017-11-05T03:58:04.027Z,97226.25
2017-11-05T04:00:32.292Z,97233.28
2017-11-05T04:03:00.606Z,97231.09
2017-11-05T04:05:29.173Z,97228.46
2017-11-05T04:07:58.194Z,97229.16
2017-11-05T04:10:26.461Z,97230.47
2017-11-05T04:12:54.775Z,97229.31
2017-11-05T04:15:23.041Z,97234.56
2017-11-05T04:17:51.312Z,97224.11
2017-11-05T04:20:19.600Z,97224.92
2017-11-05T04:22:47.857Z,97220.29
2017-11-05T04:25:16.181Z,97219.86
2017-11-05T04:27:45.313Z,97218.74
2017-11-05T04:30:14.345Z,97211.35
2017-11-05T04:32:42.610Z,97218.29
2017-11-05T04:35:10.888Z,97207.95
2017-11-05T04:37:39.146Z,97210.41
2017-11-05T04:40:08.884Z,97208.98
2017-11-05T04:42:37.177Z,97219.14
2017-11-05T04:45:05.435Z,97216.61
2017-11-05T04:47:33.713Z,97202.06
2017-11-05T04:50:02.029Z,97186.07
2017-11-05T04:52:31.100Z,97204.87
2017-11-05T04:54:59.362Z,97219.00
2017-11-05T04:57:27.645Z,97213.24
2017-11-05T04:59:55.916Z,97214.45
2017-11-05T05:02:24.191Z,97215.76
2017-11-05T05:04:52.789Z,97208.73
2017-11-05T05:07:21.080Z,97205.70
2017-11-05T05:09:49.375Z,97209.22
2017-11-05T05:12:17.653Z,97211.65
2017-11-05T05:14:45.918Z,97217.41
2017-11-05T05:17:14.186Z,97222.84
2017-11-05T05:19:42.525Z,97228.30
2017-11-05T05:22:11.544Z,97227.91
2017-11-05T05:24:39.788Z,97224.75
2017-11-05T05:27:08.827Z,97227.88
2017-11-05T05:29:37.075Z,97229.10
2017-11-05T05:32:06.103Z,97226.70
2017-11-05T05:34:34.364Z,97224.20
2017-11-05T05:37:02.622Z,97225.39
2017-11-05T05:39:31.653Z,97226.51
2017-11-05T05:41:59.933Z,97230.55
2017-11-05T05:44:28.192Z,97225.92
2017-11-05T05:46:56.451Z,97224.30
2017-11-05T05:49:24.726Z,97229.63
2017-11-05T05:51:53.747Z,97223.71
2017-11-05T05:54:22.004Z,97230.62
2017-11-05T05:56:50.281Z,97232.60
2017-11-05T05:59:18.550Z,97242.27
2017-11-05T06:01:47.569Z,97241.64
2017-11-05T06:04:15.849Z,97246.88
2017-11-05T06:06:44.095Z,97250.22
2017-11-05T06:09:13.124Z,97252.36
2017-11-05T06:11:41.541Z,97250.77
2017-11-05T06:14:09.791Z,97249.97
2017-11-05T06:16:38.069Z,97253.97
2017-11-05T06:19:06.348Z,97256.58
2017-11-05T06:21:34.592Z,97262.50
2017-11-05T06:24:02.868Z,97268.25
2017-11-05T06:26:31.901Z,97275.95
2017-11-05T06:29:00.159Z,97285.36
2017-11-05T06:31:28.432Z,97284.78
2017-11-05T06:33:56.691Z,97287.30
2017-11-05T06:36:25.718Z,97289.30
2017-11-05T06:38:54.027Z,97295.13
2017-11-05T06:41:22.403Z,97294.00
2017-11-05T06:43:50.666Z,97307.88
2017-11-05T06:46:18.920Z,97310.50
2017-11-05T06:48:47.204Z,97312.10
2017-11-05T06:51:15.457Z,97313.71
2017-11-05T06:53:44.505Z,97320.16
2017-11-05T06:56:12.823Z,97330.22
2017-11-05T06:58:41.885Z,97335.16
2017-11-05T07:01:10.292Z,97338.95
2017-11-05T07:03:39.480Z,97347.11
2017-11-05T07:06:08.074Z,97349.44
2017-11-05T07:08:37.270Z,97363.53
2017-11-05T07:11:07.039Z,97367.87
2017-11-05T07:13:35.742Z,97370.81
2017-11-05T07:16:05.202Z,97368.70
2017-11-05T07:18:35.801Z,97371.83
2017-11-05T07:21:04.870Z,97380.76
2017-11-05T07:23:33.859Z,97381.77
2017-11-05T07:26:04.266Z,97383.38
2017-11-05T07:28:34.670Z,97385.46
2017-11-05T07:31:03.294Z,97395.29
2017-11-05T07:33:31.844Z,97393.70
2017-11-05T07:36:01.235Z,97395.59
2017-11-05T07:38:31.137Z,97394.37
2017-11-05T07:41:00.004Z,97395.77
2017-11-05T07:43:28.961Z,97405.33
2017-11-05T07:45:58.249Z,97399.33
2017-11-05T07:48:27.688Z,97408.25
2017-11-05T07:50:56.900Z,97397.61
2017-11-05T07:53:26.099Z,97399.19
2017-11-05T07:55:56.694Z,97399.08
2017-11-05T07:58:27.221Z,97404.02
2017-11-05T08:00:57.115Z,97402.39
2017-11-05T08:03:27.670Z,97411.03
2017-11-05T08:05:55.927Z,97408.72
2017-11-05T08:08:24.951Z,97410.92
2017-11-05T08:10:53.227Z,97412.41
2017-11-05T08:13:21.489Z,97416.09
2017-11-05T08:15:50.522Z,97424.69
2017-11-05T08:18:18.813Z,97424.86
2017-11-05T08:20:47.077Z,97428.61
2017-11-05T08:23:15.334Z,97434.91
2017-11-05T08:25:43.852Z,97438.34
2017-11-05T08:28:12.123Z,97439.55
2017-11-05T08:30:40.410Z,97452.70
2017-11-05T08:33:08.693Z,97449.58
2017-11-05T08:35:36.952Z,97457.63
2017-11-05T08:38:05.190Z,97462.25
2017-11-05T08:40:34.242Z,97468.48
2017-11-05T08:43:03.304Z,97467.25
2017-11-05T08:45:31.555Z,97481.60
2017-11-05T08:48:00.593Z,97482.98
2017-11-05T08:50:28.834Z,97489.55
2017-11-05T08:52:57.086Z,97492.73
2017-11-05T08:55:25.370Z,97500.16
2017-11-05T08:57:54.398Z,97507.09
2017-11-05T09:00:22.648Z,97514.14
2017-11-05T09:02:51.689Z,97511.84
2017-11-05T09:05:19.982Z,97524.66
2017-11-05T09:07:48.843Z,97530.82
2017-11-05T09:10:17.139Z,97533.78
2017-11-05T09:12:45.410Z,97539.80
2017-11-05T09:15:13.692Z,97542.80
2017-11-05T09:17:42.230Z,97542.90
2017-11-05T09:20:11.257Z,97553.61
2017-11-05T09:22:39.503Z,97561.42
2017-11-05T09:25:08.809Z,97563.23
2017-11-05T09:27:37.897Z,97564.73
2017-11-05T09:30:06.953Z,97570.78
2017-11-05T09:32:35.260Z,97566.84
2017-11-05T09:35:03.556Z,97565.35
2017-11-05T09:37:33.506Z,97564.30
2017-11-05T09:40:01.792Z,97576.81
2017-11-05T09:42:30.055Z,97577.78
2017-11-05T09:44:58.313Z,97591.72
2017-11-05T09:47:27.368Z,97580.88
2017-11-05T09:49:55.623Z,97591.16
2017-11-05T09:52:23.888Z,97582.30
2017-11-05T09:54:52.219Z,97597.73
2017-11-05T09:57:20.651Z,97604.87
2017-11-05T09:59:48.926Z,97607.09
2017-11-05T10:02:17.210Z,97607.82
2017-11-05T10:04:45.469Z,97613.48
2017-11-05T10:07:13.747Z,97621.53
2017-11-05T10:09:42.051Z,97622.99
2017-11-05T10:12:10.318Z,97623.84
2017-11-05T10:14:38.806Z,97632.33
2017-11-05T10:17:07.108Z,97630.97
2017-11-05T10:19:35.379Z,97627.65
2017-11-05T10:22:03.627Z,97625.74
2017-11-05T10:24:31.904Z,97639.58
2017-11-05T10:27:00.201Z,97641.83
2017-11-05T10:29:28.479Z,97643.58
2017-11-05T10:31:57.011Z,97646.47
2017-11-05T10:34:26.043Z,97650.25
2017-11-05T10:36:54.318Z,97652.34
2017-11-05T10:39:22.872Z,97653.37
2017-11-05T10:41:51.937Z,97653.17
2017-11-05T10:44:20.183Z,97661.82
2017-11-05T10:46:48.464Z,97662.91
2017-11-05T10:49:16.726Z,97663.38
2017-11-05T10:51:44.998Z,97667.65
2017-11-05T10:54:13.265Z,97676.97
2017-11-05T10:56:41.532Z,97684.23
2017-11-05T10:59:10.571Z,97683.23
2017-11-05T11:01:38.834Z,97685.59
2017-11-05T11:04:07.099Z,97685.54
2017-11-05T11:06:35.377Z,97697.14
2017-11-05T11:09:03.658Z,97699.17
2017-11-05T11:11:31.925Z,97695.55
2017-11-05T11:14:00.204Z,97707.63
2017-11-05T11:16:28.453Z,97710.28
2017-11-05T11:18:56.765Z,97713.14
2017-11-05T11:21:25.037Z,97712.13
2017-11-05T11:23:54.055Z,97719.04
2017-11-05T11:26:22.324Z,97717.33
2017-11-05T11:28:50.608Z,97720.33
2017-11-05T11:31:18.873Z,97716.53
2017-11-05T11:33:47.162Z,97722.84
2017-11-05T11:36:15.411Z,97723.75
2017-11-05T11:38:44.433Z,97732.14
2017-11-05T11:41:12.714Z,97736.94
2017-11-05T11:43:40.981Z,97731.06
2017-11-05T11:46:09.227Z,97733.36
2017-11-05T11:48:38.274Z,97737.41
2017-11-05T11:51:06.546Z,97741.81
2017-11-05T11:53:34.825Z,97745.45
2017-11-05T11:56:03.099Z,97752.67
2017-11-05T11:58:31.410Z,97752.28
2017-11-05T12:00:59.680Z,97749.03
2017-11-05T12:03:27.976Z,97749.18
2017-11-05T12:05:56.230Z,97752.98
2017-11-05T12:08:25.022Z,97752.56
2017-11-05T12:10:53.290Z,97751.17
2017-11-05T12:13:21.571Z,97752.30
2017-11-05T12:15:49.845Z,97752.58
2017-11-05T12:18:18.114Z,97755.45
2017-11-05T12:20:46.403Z,97749.39
2017-11-05T12:23:14.660Z,97754.65
2017-11-05T12:25:42.915Z,97754.70
2017-11-05T12:28:11.969Z,97760.72
2017-11-05T12:30:40.226Z,97765.23
2017-11-05T12:33:08.523Z,97763.00
2017-11-05T12:35:36.839Z,97761.75
2017-11-05T12:38:05.873Z,97767.10
2017-11-05T12:40:34.151Z,97767.26
2017-11-05T12:43:02.802Z,97769.04
2017-11-05T12:45:31.819Z,97760.70
2017-11-05T12:48:00.098Z,97763.27
2017-11-05T12:50:28.447Z,97760.77
2017-11-05T12:52:57.483Z,97761.77
2017-11-05T12:55:25.758Z,97756.53
2017-11-05T12:57:54.025Z,97759.16
2017-11-05T13:00:22.294Z,97751.76
2017-11-05T13:02:50.584Z,97751.07
2017-11-05T13:05:18.859Z,97745.94
2017-11-05T13:07:47.122Z,97751.30
2017-11-05T13:10:15.410Z,97755.28
2017-11-05T13:12:45.691Z,97746.80
2017-11-05T13:15:14.146Z,97750.08
2017-11-05T13:17:42.571Z,97753.94
2017-11-05T13:20:11.838Z,97760.98
2017-11-05T13:22:42.130Z,97759.77
2017-11-05T13:25:10.417Z,97760.91
2017-11-05T13:27:38.793Z,97768.16
2017-11-05T13:30:11.206Z,97770.53
2017-11-05T13:32:39.583Z,97770.17
2017-11-05T13:35:07.928Z,97768.28
2017-11-05T13:37:36.439Z,97775.62
2017-11-05T13:40:06.852Z,97783.53
2017-11-05T13:42:35.273Z,97787.06
2017-11-05T13:45:04.548Z,97793.08
2017-11-05T13:47:32.906Z,97786.84
2017-11-05T13:50:01.296Z,97799.54
2017-11-05T13:52:29.688Z,97797.97
2017-11-05T13:55:01.430Z,97803.04
2017-11-05T13:57:29.819Z,97810.06
2017-11-05T13:59:58.186Z,97809.00
2017-11-05T14:02:32.390Z,97814.16
2017-11-05T14:05:00.786Z,97812.68
2017-11-05T14:07:29.169Z,97820.77
2017-11-05T14:10:01.550Z,97824.30
2017-11-05T14:12:29.986Z,97827.05
2017-11-05T14:14:59.248Z,97817.92
2017-11-05T14:17:32.220Z,97819.66
2017-11-05T14:20:02.466Z,97816.42
2017-11-05T14:22:30.805Z,97822.50
2017-11-05T14:24:59.208Z,97820.36
2017-11-05T14:27:30.675Z,97828.06
2017-11-05T14:29:58.944Z,97833.22
2017-11-05T14:32:27.238Z,97835.14
2017-11-05T14:34:55.497Z,97841.58
2017-11-05T14:37:23.756Z,97841.90
2017-11-05T14:39:52.054Z,97843.36
2017-11-05T14:42:20.318Z,97852.01
2017-11-05T14:44:48.614Z,97859.09
2017-11-05T14:47:16.953Z,97856.19
2017-11-05T14:49:45.969Z,97864.43
2017-11-05T14:52:14.246Z,97875.94
2017-11-05T14:54:42.522Z,97876.58
2017-11-05T14:57:10.796Z,97885.09
2017-11-05T14:59:39.382Z,97894.33
2017-11-05T15:02:07.653Z,97898.55
2017-11-05T15:04:35.916Z,97899.05
2017-11-05T15:07:04.193Z,97908.84
2017-11-05T15:09:32.478Z,97909.59
2017-11-05T15:12:00.764Z,97921.64
2017-11-05T15:14:29.034Z,97927.94
2017-11-05T15:16:57.295Z,97926.31
2017-11-05T15:19:25.589Z,97935.42
2017-11-05T15:21:53.838Z,97938.58
2017-11-05T15:24:22.876Z,97941.34
2017-11-05T15:26:51.154Z,97944.67
2017-11-05T15:29:19.416Z,97949.39
2017-11-05T15:31:47.692Z,97951.16
2017-11-05T15:34:15.944Z,97953.58
2017-11-05T15:36:45.035Z,97957.00
2017-11-05T15:39:14.082Z,97954.14
2017-11-05T15:41:42.343Z,97961.64
2017-11-05T15:44:10.606Z,97964.09
2017-11-05T15:46:39.218Z,97963.77
2017-11-05T15:49:07.489Z,97965.08
2017-11-05T15:51:35.750Z,97968.70
2017-11-05T15:54:04.038Z,97962.02
2017-11-05T15:56:32.356Z,97968.98
2017-11-05T15:59:00.950Z,97975.30
2017-11-05T16:01:29.206Z,97974.03
2017-11-05T16:03:57.455Z,97968.25
2017-11-05T16:06:25.743Z,97972.67
2017-11-05T16:08:54.033Z,97972.77
2017-11-05T16:11:22.320Z,97974.92
2017-11-05T16:13:50.666Z,97982.22
2017-11-05T16:16:18.930Z,97978.91
2017-11-05T16:18:47.227Z,97977.77
2017-11-05T16:21:15.495Z,97972.85
2017-11-05T16:23:43.753Z,97980.25
2017-11-05T16:26:12.881Z,97979.32
2017-11-05T16:28:41.142Z,97985.17
2017-11-05T16:31:09.441Z,97988.64
2017-11-05T16:33:37.725Z,97992.22
2017-11-05T16:36:05.994Z,97990.19
2017-11-05T16:38:34.274Z,97996.54
2017-11-05T16:41:02.617Z,98000.31
2017-11-05T16:43:31.644Z,98002.41
2017-11-05T16:45:59.910Z,98003.45
2017-11-05T16:48:28.194Z,98011.27
2017-11-05T16:50:56.448Z,98019.13
2017-11-05T16:53:25.491Z,98022.87
2017-11-05T16:55:53.769Z,98035.49
2017-11-05T16:58:22.036Z,98044.34
2017-11-05T17:00:50.303Z,98043.69
2017-11-05T17:03:18.584Z,98049.23
2017-11-05T17:05:46.859Z,98054.88
2017-11-05T17:08:15.115Z,98069.38
2017-11-05T17:10:43.405Z,98091.31
2017-11-05T17:13:11.675Z,98102.05
2017-11-05T17:15:39.947Z,98107.09
2017-11-05T17:18:08.276Z,98095.27
2017-11-05T17:20:36.539Z,98090.59
2017-11-05T17:23:04.814Z,98093.29
2017-11-05T17:25:33.094Z,98098.95
2017-11-05T17:28:01.361Z,98110.23
2017-11-05T17:30:29.624Z,98116.07
2017-11-05T17:32:57.922Z,98123.66
2017-11-05T17:35:26.186Z,98126.87
2017-11-05T17:37:54.433Z,98134.37
2017-11-05T17:40:23.468Z,98144.60
2017-11-05T17:42:51.796Z,98149.65
2017-11-05T17:45:20.088Z,98149.34
2017-11-05T17:47:49.140Z,98157.47
2017-11-05T17:50:17.398Z,98156.58
2017-11-05T17:52:45.673Z,98150.96
2017-11-05T17:55:13.953Z,98148.86
2017-11-05T17:57:42.232Z,98151.12
2017-11-05T18:00:10.517Z,98152.68
2017-11-05T18:02:38.796Z,98155.66
2017-11-05T18:05:07.097Z,98153.57
2017-11-05T18:07:35.396Z,98165.99
2017-11-05T18:10:04.436Z,98160.16
2017-11-05T18:12:32.703Z,98164.45
2017-11-05T18:15:00.985Z,98161.20
2017-11-05T18:17:29.237Z,98162.09
2017-11-05T18:19:58.290Z,98164.61
2017-11-05T18:22:26.578Z,98167.38
2017-11-05T18:24:54.853Z,98167.53
2017-11-05T18:27:23.135Z,98167.95
2017-11-05T18:29:51.437Z,98172.65
2017-11-05T18:32:20.489Z,98169.66
2017-11-05T18:34:48.816Z,98170.78
2017-11-05T18:37:17.842Z,98171.75
2017-11-05T18:39:46.978Z,98176.80
2017-11-05T18:42:15.290Z,98180.50
2017-11-05T18:44:44.333Z,98180.92
2017-11-05T18:47:12.657Z,98185.95
2017-11-05T18:49:41.719Z,98189.38
2017-11-05T18:52:10.005Z,98181.83
2017-11-05T18:54:38.310Z,98186.56
2017-11-05T18:57:07.350Z,98191.48
2017-11-05T18:59:35.622Z,98185.06
2017-11-05T19:02:03.880Z,98190.77
2017-11-05T19:04:32.176Z,98188.75
2017-11-05T19:07:00.451Z,98193.27
2017-11-05T19:09:28.722Z,98200.55
2017-11-05T19:11:57.016Z,98199.14
2017-11-05T19:14:26.286Z,98202.42
2017-11-05T19:16:54.633Z,98215.55
2017-11-05T19:19:23.705Z,98209.89
2017-11-05T19:21:51.980Z,98219.61
2017-11-05T19:24:20.527Z,98215.14
2017-11-05T19:26:50.641Z,98221.97
2017-11-05T19:29:19.687Z,98220.88
2017-11-05T19:31:47.971Z,98218.33
2017-11-05T19:34:16.242Z,98231.33
2017-11-05T19:36:44.798Z,98235.48
2017-11-05T19:39:13.056Z,98233.28
2017-11-05T19:41:41.316Z,98234.77
2017-11-05T19:44:10.729Z,98240.23
2017-11-05T19:46:41.919Z,98251.92
2017-11-05T19:49:10.487Z,98245.99
2017-11-05T19:51:39.477Z,98248.02
2017-11-05T19:54:07.748Z,98239.42
2017-11-05T19:56:36.877Z,98240.13
2017-11-05T19:59:05.158Z,98249.50
2017-11-05T20:01:33.442Z,98250.23
2017-11-05T20:04:02.008Z,98255.56
2017-11-05T20:06:30.275Z,98261.36
2017-11-05T20:08:58.566Z,98262.41
2017-11-05T20:11:26.873Z,98266.76
2017-11-05T20:13:55.172Z,98270.13
2017-11-05T20:16:24.206Z,98279.32
2017-11-05T20:18:52.615Z,98286.33
2017-11-05T20:21:20.885Z,98285.98
2017-11-05T20:23:49.185Z,98287.52
2017-11-05T20:26:17.492Z,98293.05
2017-11-05T20:28:46.524Z,98294.34
2017-11-05T20:31:14.904Z,98293.72
2017-11-05T20:33:43.165Z,98290.28
2017-11-05T20:36:11.439Z,98289.88
2017-11-05T20:38:39.723Z,98296.53
2017-11-05T20:41:07.976Z,98298.86
2017-11-05T20:43:37.018Z,98294.80
2017-11-05T20:46:05.310Z,98297.66
2017-11-05T20:48:33.585Z,98302.01
2017-11-05T20:51:01.879Z,98301.92
2017-11-05T20:53:30.152Z,98306.78
2017-11-05T20:55:58.418Z,98308.62
2017-11-05T20:58:26.696Z,98313.34
2017-11-05T21:00:54.974Z,98314.30
2017-11-05T21:03:23.255Z,98315.52
2017-11-05T21:05:51.537Z,98318.89
2017-11-05T21:08:27.459Z,98312.09
2017-11-05T21:10:55.761Z,98321.05
2017-11-05T21:13:24.816Z,98317.19
2017-11-05T21:15:53.119Z,98324.28
2017-11-05T21:18:21.415Z,98325.41
2017-11-05T21:20:49.695Z,98332.92
2017-11-05T21:23:17.981Z,98324.37
2017-11-05T21:25:46.261Z,98326.97
2017-11-05T21:28:15.301Z,98324.96
2017-11-05T21:30:43.599Z,98325.26
2017-11-05T21:33:11.863Z,98325.21
2017-11-05T21:35:40.150Z,98325.88
2017-11-05T21:38:08.430Z,98324.47
2017-11-05T21:40:36.693Z,98325.00
2017-11-05T21:43:04.975Z,98323.94
2017-11-05T21:45:33.247Z,98325.25
2017-11-05T21:48:01.498Z,98326.30
2017-11-05T21:50:29.785Z,98324.30
2017-11-05T21:52:58.831Z,98326.83
2017-11-05T21:55:27.117Z,98335.06
2017-11-05T21:57:55.391Z,98329.34
2017-11-05T22:00:23.663Z,98330.23
2017-11-05T22:02:51.967Z,98331.36
2017-11-05T22:05:20.236Z,98333.84
2017-11-05T22:07:48.521Z,98328.23
2017-11-05T22:10:16.801Z,98321.88
2017-11-05T22:12:45.146Z,98325.52
2017-11-05T22:15:13.456Z,98332.00
2017-11-05T22:17:41.734Z,98324.87
2017-11-05T22:20:09.999Z,98328.23
2017-11-05T22:22:38.321Z,98331.95
2017-11-05T22:25:07.379Z,98339.94
2017-11-05T22:27:39.448Z,98336.19
2017-11-05T22:30:07.708Z,98341.36
2017-11-05T22:32:36.051Z,98343.19
2017-11-05T22:35:05.196Z,98354.63
2017-11-05T22:37:33.454Z,98354.50
2017-11-05T22:40:01.732Z,98353.06
2017-11-05T22:42:30.013Z,98349.89
2017-11-05T22:44:58.281Z,98344.90
2017-11-05T22:47:26.564Z,98351.88
2017-11-05T22:49:54.835Z,98358.79
2017-11-05T22:52:23.130Z,98363.65
2017-11-05T22:54:51.417Z,98367.89
2017-11-05T22:57:19.677Z,98371.91
2017-11-05T22:59:47.953Z,98370.66
2017-11-05T23:02:16.234Z,98377.15
2017-11-05T23:04:44.484Z,98372.23
2017-11-05T23:07:12.751Z,98375.78
2017-11-05T23:09:41.796Z,98374.34
2017-11-05T23:12:10.112Z,98379.13
2017-11-05T23:14:38.469Z,98381.11
2017-11-05T23:17:06.735Z,98384.66
2017-11-05T23:19:35.011Z,98390.02
2017-11-05T23:22:03.274Z,98391.25
2017-11-05T23:24:31.545Z,98385.27
2017-11-05T23:26:59.841Z,98390.86
2017-11-05T23:29:28.111Z,98392.13
2017-11-05T23:31:56.389Z,98390.77
2017-11-05T23:34:24.658Z,98402.33
2017-11-05T23:36:52.926Z,98397.52
2017-11-05T23:39:21.259Z,98393.50
2017-11-05T23:41:49.524Z,98388.55
2017-11-05T23:44:18.020Z,98393.91
2017-11-05T23:46:46.518Z,98393.14
2017-11-05T23:49:15.548Z,98395.95
2017-11-05T23:51:43.830Z,98395.20
2017-11-05T23:54:12.103Z,98394.80
2017-11-05T23:56:40.487Z,98397.98
2017-11-05T23:59:08.760Z,98397.69
